Skip Navigation Links Skip Navigation Links

Current Weather

Mount Isa Amo, Australia

For information only: do not use for flight planning or navigation.
Latest weather
Observation time Thursday, January 27, 2022 4:30 PM AEDT
Local time Thursday, January 27, 2022 5:09 PM AEDT
Flight conditions Visual Meteorological Conditions
Winds
Wind direction North (360°)
Wind speed 15 mph
Visibility 6.2 mi.
Sky condition
Ceiling 3,900 ft. overcast
Cloud layer scattered clouds 2,200 ft.
Cloud layer scattered clouds 2,500 ft.
Cloud layer overcast 3,900 ft.
Temperature 84°F
Dewpoint 73°F
Altimeter 29.65 in.Hg
Derived measurements
Relative humidity 70%
Heat index 91°F
Density altitude 2638 ft.
Remarks
Fully automated report.
METAR YBMA 270530Z AUTO 36013KT 9999 // SCT022 SCT025 OVC039 29/23 Q1004

Settings

Location code

InnerDrive.Weather 4.0.6770.0 Release CLR 4.0.30319.42000
Copyright ©2018 Inner Drive Technology. All rights reserved. Portions Copyright ©1986-2018 David Braverman.

Find weather

Site navigation


Skip Navigation Links

Place info

Page info

PayPal - The safer, easier way to pay online!

Return home.

Copyright ©2022 Inner Drive Technology. Purveyors of fine, hand-crafted computer software. Page printed 2022-01-27T06:09:44 UTC.